Aviation Digital Data Service (ADDS)

Output produced by METARs form (0528 UTC 23 July 2014)
found at http://www.aviationweather.gov/adds/metars/
 
KMDT 230456Z 21009G15KT 10SM CLR 25/20 A3004 RMK AO2 SLP169 T02500200 403110217
KMDT 230356Z 21009KT 190V260 10SM FEW110 26/20 A3005 RMK AO2 SLP173 T02560200
KMDT 230256Z 19007KT 10SM FEW060 26/21 A3007 RMK AO2 T02610206
KMDT 230156Z 18006KT 10SM FEW060 27/21 A3007 RMK AO2 SLP180 T02670206
KMDT 230056Z 17005KT 10SM SCT055 SCT250 27/21 A3006 RMK AO2 SLP178 T02720211
KMDT 222356Z 18005KT 10SM FEW050 FEW250 28/21 A3006 RMK AO2 SLP178 T02830211 10311 20283 53001
KMDT 222256Z 21010KT 10SM FEW050 FEW250 29/21 A3006 RMK AO2 SLP178 T02940206
KMDT 222156Z 20008KT 160V240 10SM SCT050 31/21 A3006 RMK AO2 SLP176 T03060206
KMDT 222056Z 20007KT 180V240 10SM FEW050 31/20 A3006 RMK AO2 SLP178 T03110200 58020
KMDT 221956Z 25007KT 10SM SCT050 31/21 A3008 RMK AO2 SLP186 T03110206
KMDT 221856Z VRB04KT 10SM FEW037 SCT065 SCT250 30/21 A3011 RMK AO2 SLP195 T03000211
KMDT 221756Z 22007KT 10SM SCT065 SCT250 30/21 A3012 RMK AO2 SLP198 T03000211 56018 $
KMDT 221656Z 21009KT 10SM SCT040 BKN080 29/22 A3014 RMK AO2 SLP204 T02940217
KMDT 221556Z 29004KT 10SM SCT040 OVC080 27/21 A3015 RMK AO2 SLP208 T02720211 PNO $
KMDT 221456Z VRB03KT BKN080 A3017 RMK AO2 SLPNO 6//// 55004 PNO $
KMDT 221443Z 00000KT A3017 RMK AO2 PNO $
KMDT 221356Z VRB03KT 10SM OVC024 25/21 A3017 RMK AO2 SLP216 T02500211
KMDT 221256Z 17004KT 10SM OVC022 24/20 A3019 RMK AO2 SLP220 T02390200
KMDT 221156Z 19006KT 10SM OVC022 23/19 A3019 RMK AO2 SLP220 T02280194 10228 20217 52009
KMDT 221056Z 14003KT 9SM OVC022 22/19 A3018 RMK AO2 SLP218 T02220189
KMDT 221006Z 13004KT 10SM BKN015 22/19 A3016 RMK AO2 T02170189
KMDT 220956Z 14004KT 10SM SCT015 SCT050 SCT250 22/19 A3017 RMK AO2 SLP213 T02170189
KMDT 220856Z 00000KT 10SM BKN050 BKN250 23/19 A3016 RMK AO2 SLP211 T02280189 55000
KMDT 220756Z 15004KT 10SM BKN045 23/19 A3016 RMK AO2 SLP210 T02280189
KMDT 220656Z 00000KT 10SM BKN045 23/18 A3016 RMK AO2 SLP211 T02280183
KMDT 220556Z 08003KT 10SM BKN045 23/19 A3016 RMK AO2 SLP211 T02280189 10250 20217 58001
KMDT 220456Z VRB03KT 10SM FEW045 FEW250 23/19 A3017 RMK AO2 SLP214 T02330189 402720206
KMDT 220356Z 00000KT 10SM SCT050 BKN250 23/19 A3017 RMK AO2 SLP214 T02280189
KMDT 220256Z 11003KT 10SM FEW060 22/19 A3016 RMK AO2 SLP213 T02220189 53003
KMDT 220156Z 00000KT 10SM FEW055 23/20 A3016 RMK AO2 SLP213 T02330200
KMDT 220056Z 00000KT 10SM SCT055 24/20 A3015 RMK AO2 SLP209 T02390200
KMDT 212356Z 00000KT 10SM FEW050 FEW250 25/21 A3015 RMK AO2 SLP210 T02500206 10272 20250 55001
KMDT 212256Z 15003KT 10SM FEW055 SCT250 27/19 A3015 RMK AO2 SLP208 T02670194
KMDT 212156Z 14005KT 10SM SCT055 BKN250 27/19 A3015 RMK AO2 SLP207 T02720194
KMDT 212056Z 14003KT 10SM FEW043 OVC050 26/19 A3016 RMK AO2 SLP210 T02610194 56009
KMDT 211956Z 00000KT 10SM FEW035 OVC046 26/18 A3016 RMK AO2 SLP212 T02610183
KMDT 211856Z 15004KT 10SM FEW043 OVC065 27/19 A3017 RMK AO2 SLP213 T02720189
KMDT 211756Z VRB03KT 10SM FEW035 OVC050 26/19 A3018 RMK AO2 SLP219 T02560189 10256 20217 56005